Time;durP1;ratioP1;P1;durP2;ratioP2;P2;SDS_P1;SDS_P2;PMS_P1;PMS_P2;Temp;Humidity;BMP_temperature;BMP_pressure;BME280_temperature;BME280_humidity;BME280_pressure;Samples;Min_cycle;Max_cycle;Signal;HPM_P1;HPM_P2
2023/05/01 00:00:03;;;;;;;9.60;2.20;;;;;;;;;;5014916;28;20154;-63
2023/05/01 00:02:30;;;;;;;5.85;2.10;;;;;;;;;;5046971;28;20044;-61
2023/05/01 00:04:57;;;;;;;7.65;2.97;;;;;;;;;;5050429;28;20045;-62
2023/05/01 00:07:24;;;;;;;5.55;2.03;;;;;;;;;;5048681;28;20065;-64
2023/05/01 00:09:51;;;;;;;6.30;1.83;;;;;;;;;;5052081;28;20440;-63
2023/05/01 00:12:18;;;;;;;5.30;1.70;;;;;;;;;;5049684;28;20036;-63
2023/05/01 00:14:47;;;;;;;8.07;1.85;;;;;;;;;;5047753;28;20102;-63
2023/05/01 00:17:14;;;;;;;7.10;1.92;;;;;;;;;;5047046;28;20473;-63
2023/05/01 00:19:41;;;;;;;5.80;2.40;;;;;;;;;;5049206;28;20043;-64
2023/05/01 00:22:07;;;;;;;5.63;2.40;;;;;;;;;;5034766;28;20045;-64
2023/05/01 00:24:34;;;;;;;5.50;2.00;;;;;;;;;;5029116;28;20041;-61
2023/05/01 00:27:02;;;;;;;7.88;2.35;;;;;;;;;;5029156;28;20118;-62
2023/05/01 00:29:29;;;;;;;7.82;2.47;;;;;;;;;;5061375;28;21908;-61
2023/05/01 00:31:55;;;;;;;6.32;2.10;;;;;;;;;;5067369;28;20044;-62
2023/05/01 00:34:23;;;;;;;5.60;1.90;;;;;;;;;;5079266;28;20048;-61
2023/05/01 00:36:51;;;;;;;6.18;2.00;;;;;;;;;;5067175;28;20143;-61
2023/05/01 00:39:17;;;;;;;6.50;1.92;;;;;;;;;;5065831;28;20054;-63
2023/05/01 00:41:44;;;;;;;7.90;2.28;;;;;;;;;;5066039;28;20044;-62
2023/05/01 00:44:11;;;;;;;8.05;2.22;;;;;;;;;;5063947;28;20894;-63
2023/05/01 00:46:38;;;;;;;6.25;2.28;;;;;;;;;;5062225;28;20432;-59
2023/05/01 00:49:04;;;;;;;7.57;2.78;;;;;;;;;;5067038;28;20040;-63
2023/05/01 00:51:31;;;;;;;9.70;2.42;;;;;;;;;;5065701;28;20063;-62
2023/05/01 00:54:00;;;;;;;7.63;2.25;;;;;;;;;;5064258;28;20051;-64
2023/05/01 00:56:27;;;;;;;5.70;2.30;;;;;;;;;;5066552;28;20160;-63
2023/05/01 00:58:54;;;;;;;8.75;2.25;;;;;;;;;;5065615;28;20047;-60
2023/05/01 01:01:21;;;;;;;8.00;2.40;;;;;;;;;;5065805;28;20598;-62
2023/05/01 01:03:48;;;;;;;7.30;2.08;;;;;;;;;;5064218;28;20036;-63
2023/05/01 01:06:17;;;;;;;8.18;2.17;;;;;;;;;;5066249;28;20044;-62
2023/05/01 01:09:00;;;;;;;7.57;2.00;;;;;;;;;;5064545;28;20044;-61
2023/05/01 01:11:33;;;;;;;5.43;1.98;;;;;;;;;;5062384;28;20131;-64
2023/05/01 01:14:06;;;;;;;8.52;2.17;;;;;;;;;;5066388;28;20071;-61
2023/05/01 01:16:42;;;;;;;15.00;2.80;;;;;;;;;;5065391;28;20063;-60
2023/05/01 01:19:09;;;;;;;6.10;2.03;;;;;;;;;;5067777;28;20115;-61
2023/05/01 01:21:38;;;;;;;7.25;1.92;;;;;;;;;;5066717;27;20809;-61
2023/05/01 01:24:12;;;;;;;5.88;2.35;;;;;;;;;;5082623;28;20040;-63
2023/05/01 01:26:54;;;;;;;6.93;2.20;;;;;;;;;;5070245;27;20039;-63
2023/05/01 01:29:50;;;;;;;6.07;2.55;;;;;;;;;;5067208;28;20130;-58
2023/05/01 01:32:35;;;;;;;7.43;2.22;;;;;;;;;;5009004;28;20121;-61
2023/05/01 01:35:03;;;;;;;7.85;2.25;;;;;;;;;;5045329;28;21964;-60
2023/05/01 01:37:53;;;;;;;7.80;1.90;;;;;;;;;;5059958;28;20792;-60
2023/05/01 01:40:23;;;;;;;5.22;2.00;;;;;;;;;;5041682;28;20048;-60
2023/05/01 01:42:52;;;;;;;5.50;1.73;;;;;;;;;;5041831;28;20075;-59
2023/05/01 01:45:22;;;;;;;9.07;1.92;;;;;;;;;;5043637;28;20127;-62
2023/05/01 01:47:50;;;;;;;8.88;2.15;;;;;;;;;;5044897;28;20516;-63
2023/05/01 01:50:18;;;;;;;6.65;1.80;;;;;;;;;;5043346;28;20045;-62
2023/05/01 01:52:46;;;;;;;10.27;2.20;;;;;;;;;;5040928;28;20048;-65
2023/05/01 01:55:15;;;;;;;5.10;1.70;;;;;;;;;;5044253;28;20029;-58
2023/05/01 01:57:42;;;;;;;11.15;2.00;;;;;;;;;;5041114;28;20545;-61
2023/05/01 02:00:10;;;;;;;7.15;2.10;;;;;;;;;;5042596;28;20098;-60
2023/05/01 02:02:38;;;;;;;9.23;2.50;;;;;;;;;;5041049;28;20421;-61
2023/05/01 02:05:08;;;;;;;9.40;2.65;;;;;;;;;;5059489;28;20060;-65
2023/05/01 02:07:37;;;;;;;6.45;2.13;;;;;;;;;;5043647;28;20049;-61
2023/05/01 02:10:04;;;;;;;9.57;2.40;;;;;;;;;;5044915;28;20164;-60
2023/05/01 02:12:31;;;;;;;7.32;2.03;;;;;;;;;;5042512;28;20072;-61
2023/05/01 02:14:59;;;;;;;7.57;1.77;;;;;;;;;;5043082;28;20329;-61
2023/05/01 02:17:26;;;;;;;6.38;1.83;;;;;;;;;;5042385;28;20130;-61
2023/05/01 02:19:54;;;;;;;6.32;1.73;;;;;;;;;;5043072;28;20099;-62
2023/05/01 02:22:27;;;;;;;8.70;1.90;;;;;;;;;;5043080;28;20128;-62
2023/05/01 02:24:56;;;;;;;8.65;1.90;;;;;;;;;;5042297;28;20040;-61
2023/05/01 02:27:34;;;;;;;6.07;2.05;;;;;;;;;;5040397;28;20115;-62
2023/05/01 02:30:00;;;;;;;8.05;3.20;;;;;;;;;;5041178;28;20095;-57
2023/05/01 02:32:27;;;;;;;10.00;2.00;;;;;;;;;;5042007;28;20037;-63
2023/05/01 02:34:54;;;;;;;7.47;2.17;;;;;;;;;;5039355;28;20840;-62
2023/05/01 02:37:21;;;;;;;7.88;2.30;;;;;;;;;;5042215;28;20049;-63
2023/05/01 02:39:48;;;;;;;6.07;2.30;;;;;;;;;;5057505;28;20543;-59
2023/05/01 02:42:16;;;;;;;6.70;2.13;;;;;;;;;;5042447;28;20044;-60
2023/05/01 02:44:45;;;;;;;10.75;2.38;;;;;;;;;;5040525;28;20506;-62
2023/05/01 02:47:16;;;;;;;10.13;1.90;;;;;;;;;;5042020;28;20118;-64
2023/05/01 02:49:43;;;;;;;5.75;1.65;;;;;;;;;;5040754;28;20045;-62
2023/05/01 02:52:11;;;;;;;7.22;1.98;;;;;;;;;;5042633;28;20506;-63
2023/05/01 02:54:38;;;;;;;8.80;1.90;;;;;;;;;;5042793;28;20473;-60
2023/05/01 02:57:05;;;;;;;7.97;2.03;;;;;;;;;;5043076;28;20038;-62
2023/05/01 02:59:32;;;;;;;5.20;1.88;;;;;;;;;;5044495;28;20044;-59
2023/05/01 03:01:59;;;;;;;6.75;1.52;;;;;;;;;;5043127;28;20033;-63
2023/05/01 03:04:26;;;;;;;7.82;1.70;;;;;;;;;;5056339;28;20101;-61
2023/05/01 03:06:53;;;;;;;9.05;2.03;;;;;;;;;;5042335;28;20560;-63
2023/05/01 03:09:21;;;;;;;6.93;2.03;;;;;;;;;;5041999;28;20032;-59
2023/05/01 03:11:48;;;;;;;8.10;2.40;;;;;;;;;;5057416;28;20036;-60
2023/05/01 03:14:14;;;;;;;9.27;1.73;;;;;;;;;;5041374;28;20041;-61
2023/05/01 03:16:41;;;;;;;6.32;1.75;;;;;;;;;;5042184;28;20036;-59
2023/05/01 03:19:08;;;;;;;17.02;2.20;;;;;;;;;;5046214;28;20041;-60
2023/05/01 03:21:35;;;;;;;7.80;1.83;;;;;;;;;;5043843;28;20681;-60
2023/05/01 03:24:02;;;;;;;7.90;1.75;;;;;;;;;;5047090;28;20439;-64
2023/05/01 03:26:29;;;;;;;8.07;2.50;;;;;;;;;;5043952;28;20041;-59
2023/05/01 03:28:56;;;;;;;15.05;2.67;;;;;;;;;;5045082;28;20806;-61
2023/05/01 03:31:42;;;;;;;12.52;2.85;;;;;;;;;;5058496;28;20068;-60
2023/05/01 03:34:09;;;;;;;6.07;2.05;;;;;;;;;;5022031;28;20048;-63
2023/05/01 03:36:36;;;;;;;11.10;3.00;;;;;;;;;;5022437;28;20049;-61
2023/05/01 03:39:04;;;;;;;10.00;2.50;;;;;;;;;;5023440;28;20115;-59
2023/05/01 03:41:31;;;;;;;6.75;2.15;;;;;;;;;;5010135;28;20490;-59
2023/05/01 03:43:57;;;;;;;13.57;2.90;;;;;;;;;;5021969;28;20041;-61
2023/05/01 03:46:24;;;;;;;9.02;2.63;;;;;;;;;;5009923;28;20037;-60
2023/05/01 03:48:51;;;;;;;6.03;2.38;;;;;;;;;;5021318;28;22076;-62
2023/05/01 03:51:18;;;;;;;10.75;2.58;;;;;;;;;;5021411;28;20873;-62
2023/05/01 03:53:45;;;;;;;10.40;3.38;;;;;;;;;;5020582;28;20033;-59
2023/05/01 03:56:11;;;;;;;12.80;3.22;;;;;;;;;;5021830;28;20084;-61
2023/05/01 03:58:38;;;;;;;9.95;3.28;;;;;;;;;;5021763;28;20171;-61
2023/05/01 04:01:05;;;;;;;10.70;2.75;;;;;;;;;;5022870;28;20072;-61
2023/05/01 04:03:31;;;;;;;9.85;3.28;;;;;;;;;;5020436;28;20901;-59
2023/05/01 04:05:58;;;;;;;11.10;3.50;;;;;;;;;;5022207;28;20581;-61
2023/05/01 04:08:25;;;;;;;14.25;4.28;;;;;;;;;;5021308;28;20042;-61
2023/05/01 04:10:51;;;;;;;15.77;3.78;;;;;;;;;;5027801;28;20175;-61
2023/05/01 04:13:18;;;;;;;9.75;3.88;;;;;;;;;;5043904;28;20032;-61
2023/05/01 04:15:45;;;;;;;12.93;3.97;;;;;;;;;;5044549;28;20037;-61
2023/05/01 04:18:12;;;;;;;12.45;4.05;;;;;;;;;;5046164;28;20056;-60
2023/05/01 04:20:41;;;;;;;13.77;3.95;;;;;;;;;;5045316;28;20127;-61
2023/05/01 04:23:08;;;;;;;13.07;4.05;;;;;;;;;;5043884;28;20041;-62
2023/05/01 04:25:36;;;;;;;11.20;3.83;;;;;;;;;;5044442;28;20037;-61
2023/05/01 04:28:02;;;;;;;17.10;3.83;;;;;;;;;;5043766;28;20052;-61
2023/05/01 04:30:30;;;;;;;11.73;4.50;;;;;;;;;;5041504;28;20052;-60
2023/05/01 04:33:00;;;;;;;10.00;3.88;;;;;;;;;;5043429;28;20402;-59
2023/05/01 04:35:27;;;;;;;13.95;3.92;;;;;;;;;;5042819;28;20045;-60
2023/05/01 04:37:53;;;;;;;11.43;3.65;;;;;;;;;;5043546;28;20175;-60
2023/05/01 04:40:20;;;;;;;14.13;4.22;;;;;;;;;;5044521;28;20124;-60
2023/05/01 04:42:47;;;;;;;10.98;4.05;;;;;;;;;;5044402;28;20033;-60
2023/05/01 04:45:14;;;;;;;10.90;3.45;;;;;;;;;;5044280;28;20378;-59
2023/05/01 04:47:40;;;;;;;8.73;3.25;;;;;;;;;;5044113;28;20040;-60
2023/05/01 04:50:07;;;;;;;9.40;3.33;;;;;;;;;;5043084;28;20063;-59
2023/05/01 04:52:34;;;;;;;7.40;2.90;;;;;;;;;;5042484;28;20079;-62
2023/05/01 04:55:02;;;;;;;9.55;3.13;;;;;;;;;;5043880;28;20048;-59
2023/05/01 04:57:29;;;;;;;8.10;3.08;;;;;;;;;;5042769;28;20488;-61
2023/05/01 04:59:56;;;;;;;10.30;3.33;;;;;;;;;;5045693;28;20037;-61
2023/05/01 05:02:22;;;;;;;10.57;2.83;;;;;;;;;;5043328;28;20483;-62
2023/05/01 05:04:49;;;;;;;10.23;3.20;;;;;;;;;;5042728;28;20044;-63
2023/05/01 05:07:16;;;;;;;7.90;2.92;;;;;;;;;;5043639;28;20044;-61
2023/05/01 05:09:43;;;;;;;12.25;2.80;;;;;;;;;;5042301;28;20048;-61
2023/05/01 05:12:09;;;;;;;12.45;2.92;;;;;;;;;;5043399;28;20067;-61
2023/05/01 05:14:36;;;;;;;8.90;2.55;;;;;;;;;;5041549;28;20032;-61
2023/05/01 05:17:03;;;;;;;7.75;2.67;;;;;;;;;;5042478;28;20036;-61
2023/05/01 05:19:29;;;;;;;7.55;2.53;;;;;;;;;;5040955;28;20041;-60
2023/05/01 05:21:56;;;;;;;7.68;2.20;;;;;;;;;;5042252;28;20134;-61
2023/05/01 05:24:23;;;;;;;9.15;2.13;;;;;;;;;;5042873;28;20052;-60
2023/05/01 05:26:50;;;;;;;10.35;1.95;;;;;;;;;;5043977;28;21568;-62
2023/05/01 05:29:16;;;;;;;11.82;2.13;;;;;;;;;;5044535;28;20148;-62
2023/05/01 05:31:43;;;;;;;8.65;1.98;;;;;;;;;;5042425;28;20049;-63
2023/05/01 05:34:10;;;;;;;8.10;1.80;;;;;;;;;;5042717;28;20598;-61
2023/05/01 05:36:37;;;;;;;9.45;2.03;;;;;;;;;;5043097;28;20064;-64
2023/05/01 05:39:03;;;;;;;9.70;2.20;;;;;;;;;;5057806;28;20622;-61
2023/05/01 05:41:30;;;;;;;6.55;1.83;;;;;;;;;;5042013;28;20041;-60
2023/05/01 05:43:57;;;;;;;8.13;1.95;;;;;;;;;;5040420;28;20657;-61
2023/05/01 05:46:23;;;;;;;7.28;2.08;;;;;;;;;;5040445;28;20947;-60
2023/05/01 05:48:50;;;;;;;7.50;1.80;;;;;;;;;;5054574;28;20090;-61
2023/05/01 05:51:18;;;;;;;6.30;1.67;;;;;;;;;;5043259;28;20044;-62
2023/05/01 05:53:44;;;;;;;7.85;2.10;;;;;;;;;;5041564;28;20042;-60
2023/05/01 05:56:11;;;;;;;8.38;2.20;;;;;;;;;;5041946;28;20045;-60
2023/05/01 05:58:38;;;;;;;6.40;1.85;;;;;;;;;;5043485;28;20051;-60
2023/05/01 06:01:05;;;;;;;9.88;2.30;;;;;;;;;;5042984;28;20036;-59
2023/05/01 06:03:32;;;;;;;8.55;2.00;;;;;;;;;;5041365;28;20481;-60
2023/05/01 06:05:59;;;;;;;6.63;1.80;;;;;;;;;;5043479;28;20045;-61
2023/05/01 06:08:26;;;;;;;6.13;1.50;;;;;;;;;;5042020;28;20713;-62
2023/05/01 06:10:52;;;;;;;7.53;1.80;;;;;;;;;;5037338;28;21848;-64
2023/05/01 06:13:19;;;;;;;7.22;1.70;;;;;;;;;;5039007;28;20045;-62
2023/05/01 06:15:46;;;;;;;5.72;1.65;;;;;;;;;;5043064;28;20187;-60
2023/05/01 06:18:13;;;;;;;8.88;2.13;;;;;;;;;;5042655;28;20149;-58
2023/05/01 06:20:39;;;;;;;6.57;1.77;;;;;;;;;;5042268;28;20044;-58
2023/05/01 06:23:08;;;;;;;7.47;1.98;;;;;;;;;;5041395;28;20505;-61
2023/05/01 06:25:36;;;;;;;5.97;1.67;;;;;;;;;;5041590;28;20118;-61
2023/05/01 06:28:02;;;;;;;8.73;1.90;;;;;;;;;;5042250;28;20059;-62
2023/05/01 06:30:29;;;;;;;6.22;1.83;;;;;;;;;;5053983;28;20600;-60
2023/05/01 06:32:56;;;;;;;8.73;2.00;;;;;;;;;;5042121;28;20093;-61
2023/05/01 06:35:23;;;;;;;8.68;1.50;;;;;;;;;;5042576;28;20040;-61
2023/05/01 06:37:49;;;;;;;5.32;1.90;;;;;;;;;;5068843;28;20032;-59
2023/05/01 06:40:16;;;;;;;9.10;2.15;;;;;;;;;;5061706;28;20097;-59
2023/05/01 06:42:43;;;;;;;7.63;1.60;;;;;;;;;;5060659;28;20048;-62
2023/05/01 06:45:09;;;;;;;6.20;1.60;;;;;;;;;;5061338;28;20090;-60
2023/05/01 06:47:36;;;;;;;5.70;1.70;;;;;;;;;;5061309;27;20086;-60
2023/05/01 06:50:03;;;;;;;10.35;1.92;;;;;;;;;;5061073;28;20048;-60
2023/05/01 06:52:30;;;;;;;9.73;1.45;;;;;;;;;;5063691;28;20082;-58
2023/05/01 06:54:57;;;;;;;5.35;1.60;;;;;;;;;;5067625;27;20067;-60
2023/05/01 06:57:23;;;;;;;9.35;1.80;;;;;;;;;;5083060;28;20039;-59
2023/05/01 07:00:10;;;;;;;7.05;1.67;;;;;;;;;;5053978;28;20041;-60
2023/05/01 07:02:39;;;;;;;7.03;1.63;;;;;;;;;;5045961;28;20044;-61
2023/05/01 07:05:06;;;;;;;5.47;1.50;;;;;;;;;;5045579;28;20047;-61
2023/05/01 07:07:33;;;;;;;6.28;1.50;;;;;;;;;;5062360;28;20397;-62
2023/05/01 07:09:59;;;;;;;6.50;1.77;;;;;;;;;;5063798;28;20048;-60
2023/05/01 07:12:26;;;;;;;6.47;1.70;;;;;;;;;;5061057;28;20493;-61
2023/05/01 07:14:52;;;;;;;9.27;1.77;;;;;;;;;;5063784;28;20072;-62
2023/05/01 07:17:19;;;;;;;11.20;1.63;;;;;;;;;;5050641;28;20361;-60
2023/05/01 07:19:46;;;;;;;6.82;1.50;;;;;;;;;;5062383;28;20466;-60
2023/05/01 07:22:12;;;;;;;7.07;1.40;;;;;;;;;;5063647;28;20428;-60
2023/05/01 07:24:39;;;;;;;10.07;1.58;;;;;;;;;;5061798;28;20047;-60
2023/05/01 07:27:06;;;;;;;5.15;1.42;;;;;;;;;;5061218;28;20044;-61
2023/05/01 07:29:32;;;;;;;8.25;1.58;;;;;;;;;;5013371;28;20516;-59
2023/05/01 07:32:00;;;;;;;14.57;1.58;;;;;;;;;;4993054;28;20074;-60
2023/05/01 07:34:26;;;;;;;6.75;1.50;;;;;;;;;;4996532;28;20042;-59
2023/05/01 07:36:53;;;;;;;5.30;1.35;;;;;;;;;;4989239;28;20188;-60
2023/05/01 07:39:20;;;;;;;5.15;1.42;;;;;;;;;;4991372;28;20124;-62
2023/05/01 07:41:47;;;;;;;10.85;1.40;;;;;;;;;;4990440;28;20488;-60
2023/05/01 07:44:14;;;;;;;4.40;1.40;;;;;;;;;;4991884;28;20137;-63
2023/05/01 07:46:42;;;;;;;5.28;1.55;;;;;;;;;;4990193;28;21101;-61
2023/05/01 07:49:08;;;;;;;4.88;1.23;;;;;;;;;;4990347;28;20263;-61
2023/05/01 07:51:35;;;;;;;6.85;1.58;;;;;;;;;;4989161;28;20167;-59
2023/05/01 07:54:09;;;;;;;5.80;1.38;;;;;;;;;;4990343;28;20260;-61
2023/05/01 07:56:35;;;;;;;4.05;1.33;;;;;;;;;;4986814;28;20038;-60
2023/05/01 07:59:02;;;;;;;4.45;1.40;;;;;;;;;;4995358;28;20046;-60
2023/05/01 08:01:29;;;;;;;6.63;1.70;;;;;;;;;;4988933;28;20096;-60
2023/05/01 08:03:55;;;;;;;8.40;1.50;;;;;;;;;;4987989;28;20042;-60
2023/05/01 08:06:22;;;;;;;4.47;1.42;;;;;;;;;;5005079;28;20493;-60
2023/05/01 08:08:49;;;;;;;5.00;1.50;;;;;;;;;;4990625;28;20069;-60
2023/05/01 08:11:16;;;;;;;7.60;1.70;;;;;;;;;;4990232;28;20383;-59
2023/05/01 08:13:43;;;;;;;6.95;1.60;;;;;;;;;;4988788;28;20038;-62
2023/05/01 08:16:11;;;;;;;8.45;1.40;;;;;;;;;;4990541;28;20042;-60
2023/05/01 08:18:37;;;;;;;5.15;1.30;;;;;;;;;;4995627;28;20453;-60
2023/05/01 08:21:05;;;;;;;6.50;1.40;;;;;;;;;;4991666;28;20035;-58
2023/05/01 08:23:32;;;;;;;5.18;1.80;;;;;;;;;;4988126;28;20208;-58
2023/05/01 08:25:58;;;;;;;5.75;1.63;;;;;;;;;;4987255;28;20036;-61
2023/05/01 08:28:45;;;;;;;5.15;1.20;;;;;;;;;;4994619;28;20080;-62
2023/05/01 08:31:12;;;;;;;7.28;1.60;;;;;;;;;;5023553;28;20052;-61
2023/05/01 08:33:40;;;;;;;7.28;1.45;;;;;;;;;;5027851;28;20025;-63
2023/05/01 08:36:08;;;;;;;4.32;1.42;;;;;;;;;;5034399;28;20418;-63
2023/05/01 08:38:35;;;;;;;8.85;1.67;;;;;;;;;;5030632;28;20044;-62
2023/05/01 08:41:02;;;;;;;7.88;1.15;;;;;;;;;;5032185;28;20967;-58
2023/05/01 08:43:31;;;;;;;5.80;1.25;;;;;;;;;;5039912;28;20040;-59
2023/05/01 08:46:04;;;;;;;4.03;1.33;;;;;;;;;;5040745;28;20064;-59
2023/05/01 08:48:32;;;;;;;4.68;1.50;;;;;;;;;;5030911;28;20049;-61
2023/05/01 08:50:59;;;;;;;9.35;1.60;;;;;;;;;;5028855;28;20136;-60
2023/05/01 08:53:26;;;;;;;3.67;1.33;;;;;;;;;;5037199;28;20752;-60
2023/05/01 08:55:58;;;;;;;4.45;1.38;;;;;;;;;;5033131;28;20184;-62
2023/05/01 08:58:25;;;;;;;5.28;1.65;;;;;;;;;;5040620;28;20051;-61
2023/05/01 09:00:55;;;;;;;7.18;2.00;;;;;;;;;;5030750;28;20038;-61
2023/05/01 09:03:22;;;;;;;7.25;1.58;;;;;;;;;;5021774;28;20393;-61
2023/05/01 09:05:49;;;;;;;4.82;1.63;;;;;;;;;;5022892;28;20631;-61
2023/05/01 09:08:15;;;;;;;8.27;2.00;;;;;;;;;;5022855;28;20037;-60
2023/05/01 09:10:45;;;;;;;4.00;1.50;;;;;;;;;;5014656;28;20107;-59
2023/05/01 09:13:11;;;;;;;9.82;2.05;;;;;;;;;;5023076;28;20061;-58
2023/05/01 09:15:38;;;;;;;10.93;1.88;;;;;;;;;;5020420;28;20105;-60
2023/05/01 09:18:05;;;;;;;5.15;1.60;;;;;;;;;;5024751;28;20104;-62
2023/05/01 09:20:32;;;;;;;6.30;1.92;;;;;;;;;;5022021;28;20152;-59
2023/05/01 09:22:58;;;;;;;6.65;2.10;;;;;;;;;;5022447;28;20033;-59
2023/05/01 09:25:25;;;;;;;9.48;1.98;;;;;;;;;;5020868;28;20046;-60
2023/05/01 09:27:52;;;;;;;10.60;1.73;;;;;;;;;;5023742;28;21399;-59
2023/05/01 09:30:37;;;;;;;11.95;2.08;;;;;;;;;;5042034;28;20110;-61
2023/05/01 09:33:04;;;;;;;8.35;1.52;;;;;;;;;;5043476;28;20033;-62
2023/05/01 09:35:32;;;;;;;9.77;1.65;;;;;;;;;;5041769;28;20972;-62
2023/05/01 09:37:59;;;;;;;6.07;1.48;;;;;;;;;;5043018;28;20037;-60
2023/05/01 09:40:30;;;;;;;8.43;1.80;;;;;;;;;;5041296;28;20045;-61
2023/05/01 09:42:57;;;;;;;8.00;1.58;;;;;;;;;;5042398;28;20036;-61
2023/05/01 09:45:25;;;;;;;6.53;1.67;;;;;;;;;;5040978;28;20107;-59
2023/05/01 09:47:52;;;;;;;5.35;1.58;;;;;;;;;;5043863;28;20114;-59
2023/05/01 09:50:33;;;;;;;8.55;1.55;;;;;;;;;;5043123;28;20123;-59
2023/05/01 09:53:03;;;;;;;9.55;1.60;;;;;;;;;;5045814;28;20049;-59
2023/05/01 09:55:30;;;;;;;8.63;1.65;;;;;;;;;;5060022;28;20032;-59
2023/05/01 09:58:00;;;;;;;6.75;1.52;;;;;;;;;;5063356;28;20041;-59
2023/05/01 10:00:28;;;;;;;5.90;1.35;;;;;;;;;;5063019;27;20040;-64
2023/05/01 10:02:55;;;;;;;7.18;1.42;;;;;;;;;;5063084;28;20157;-57
2023/05/01 10:05:22;;;;;;;5.03;1.38;;;;;;;;;;5064480;28;20106;-60
2023/05/01 10:07:59;;;;;;;8.05;1.30;;;;;;;;;;5060406;28;20028;-60
2023/05/01 10:10:26;;;;;;;4.97;1.50;;;;;;;;;;5055376;28;20047;-67
2023/05/01 10:12:53;;;;;;;7.25;1.77;;;;;;;;;;5057475;28;20436;-61
2023/05/01 10:15:19;;;;;;;6.40;1.67;;;;;;;;;;5058445;28;20189;-62
2023/05/01 10:17:50;;;;;;;4.97;1.50;;;;;;;;;;5058631;28;20035;-62
2023/05/01 10:20:17;;;;;;;8.43;1.90;;;;;;;;;;5057894;28;20048;-61
2023/05/01 10:22:43;;;;;;;4.35;1.60;;;;;;;;;;5057589;28;20050;-59
2023/05/01 10:25:11;;;;;;;8.35;1.60;;;;;;;;;;5058052;28;20079;-59
2023/05/01 10:27:39;;;;;;;6.65;1.48;;;;;;;;;;5043794;28;20483;-60
2023/05/01 10:30:06;;;;;;;7.93;1.63;;;;;;;;;;5057886;28;20625;-60
2023/05/01 10:32:33;;;;;;;7.05;1.70;;;;;;;;;;5055545;28;20033;-62
2023/05/01 10:35:07;;;;;;;7.68;2.10;;;;;;;;;;5057485;28;20662;-60
2023/05/01 10:37:33;;;;;;;;;;;;;;;;;;5056042;28;20537;-62
2023/05/01 10:40:00;;;;;;;7.30;1.40;;;;;;;;;;5048444;28;19958;-60
2023/05/01 10:42:27;;;;;;;5.35;1.55;;;;;;;;;;5038146;28;20037;-60
2023/05/01 10:45:14;;;;;;;8.75;2.00;;;;;;;;;;5041607;28;20075;-60
2023/05/01 10:47:43;;;;;;;8.00;1.85;;;;;;;;;;5041098;28;22396;-60
2023/05/01 10:50:14;;;;;;;5.63;1.75;;;;;;;;;;5043050;28;20044;-62
2023/05/01 10:53:00;;;;;;;7.10;2.03;;;;;;;;;;5040024;27;20044;-63
2023/05/01 10:55:36;;;;;;;8.23;2.08;;;;;;;;;;5041973;28;20832;-60
2023/05/01 10:58:03;;;;;;;4.85;1.70;;;;;;;;;;5042986;28;20135;-61
2023/05/01 11:00:30;;;;;;;5.68;1.60;;;;;;;;;;5041910;28;20041;-61
2023/05/01 11:03:16;;;;;;;7.50;2.08;;;;;;;;;;5040519;28;20044;-63
2023/05/01 11:06:04;;;;;;;14.38;1.92;;;;;;;;;;5036183;28;20090;-60
2023/05/01 11:08:31;;;;;;;7.13;1.85;;;;;;;;;;5039745;28;20029;-60
2023/05/01 11:10:58;;;;;;;5.53;1.73;;;;;;;;;;5041656;28;20118;-60
2023/05/01 11:13:57;;;;;;;5.18;1.63;;;;;;;;;;5040161;28;20052;-64
2023/05/01 11:16:35;;;;;;;10.55;2.03;;;;;;;;;;5037924;28;20072;-60
2023/05/01 11:19:02;;;;;;;8.38;2.20;;;;;;;;;;5042524;28;20123;-59
2023/05/01 11:21:29;;;;;;;6.85;1.75;;;;;;;;;;5039997;28;20025;-61
2023/05/01 11:23:56;;;;;;;8.10;1.98;;;;;;;;;;5039041;28;20401;-61
2023/05/01 11:26:23;;;;;;;9.60;2.03;;;;;;;;;;5040994;28;20460;-62
2023/05/01 11:28:53;;;;;;;9.50;1.88;;;;;;;;;;5042496;28;20166;-61
2023/05/01 11:31:20;;;;;;;18.50;1.73;;;;;;;;;;5056698;28;20136;-62
2023/05/01 11:33:47;;;;;;;5.32;1.80;;;;;;;;;;5058788;28;20037;-61
2023/05/01 11:36:14;;;;;;;9.90;2.20;;;;;;;;;;5062160;28;20059;-60
2023/05/01 11:38:57;;;;;;;11.85;2.10;;;;;;;;;;5063754;28;20077;-62
2023/05/01 11:41:25;;;;;;;9.40;2.42;;;;;;;;;;5062528;28;20028;-58
2023/05/01 11:43:53;;;;;;;6.35;2.25;;;;;;;;;;5064960;28;20041;-60
2023/05/01 11:46:28;;;;;;;10.25;1.90;;;;;;;;;;5067220;28;20167;-58
2023/05/01 11:48:55;;;;;;;5.90;2.03;;;;;;;;;;5059515;28;20036;-59
2023/05/01 11:51:23;;;;;;;7.10;2.08;;;;;;;;;;5066128;28;20053;-60
2023/05/01 11:54:09;;;;;;;7.28;2.20;;;;;;;;;;5068240;28;20059;-61
2023/05/01 11:56:39;;;;;;;12.93;2.35;;;;;;;;;;5054616;28;20046;-58
2023/05/01 11:59:10;;;;;;;6.95;2.25;;;;;;;;;;5077598;28;20581;-61
2023/05/01 12:01:39;;;;;;;14.38;2.50;;;;;;;;;;5068231;28;20036;-61
2023/05/01 12:04:09;;;;;;;8.55;2.33;;;;;;;;;;5062824;28;20044;-62
2023/05/01 12:06:42;;;;;;;7.93;2.50;;;;;;;;;;5063033;28;20036;-64
2023/05/01 12:09:19;;;;;;;17.45;2.95;;;;;;;;;;5065007;28;20052;-64
2023/05/01 12:11:47;;;;;;;10.10;2.25;;;;;;;;;;5081532;28;20094;-63
2023/05/01 12:14:17;;;;;;;10.80;2.30;;;;;;;;;;5062237;28;20029;-57
2023/05/01 12:16:44;;;;;;;8.95;2.05;;;;;;;;;;5063179;28;20044;-56
2023/05/01 12:19:12;;;;;;;7.38;2.00;;;;;;;;;;5063195;28;20432;-59
2023/05/01 12:21:39;;;;;;;11.05;2.15;;;;;;;;;;5063732;28;21601;-66
2023/05/01 12:24:16;;;;;;;11.55;2.55;;;;;;;;;;5063029;28;20751;-66
2023/05/01 12:26:44;;;;;;;8.88;2.85;;;;;;;;;;5069945;27;20036;-66
2023/05/01 12:29:11;;;;;;;13.65;2.65;;;;;;;;;;5065681;28;20093;-67
2023/05/01 12:31:45;;;;;;;8.38;2.53;;;;;;;;;;5063607;28;20066;-65
2023/05/01 12:34:12;;;;;;;12.50;2.50;;;;;;;;;;5067719;28;20114;-67
2023/05/01 12:36:39;;;;;;;9.27;2.10;;;;;;;;;;5068366;28;20064;-67
2023/05/01 12:39:12;;;;;;;17.23;2.53;;;;;;;;;;5064657;28;20036;-67
2023/05/01 12:41:43;;;;;;;7.70;2.40;;;;;;;;;;5065717;28;20123;-62
2023/05/01 12:44:26;;;;;;;13.15;2.67;;;;;;;;;;5065367;28;20047;-56
2023/05/01 12:46:54;;;;;;;8.38;2.42;;;;;;;;;;5063226;28;20911;-59
2023/05/01 12:49:21;;;;;;;9.30;2.55;;;;;;;;;;5064024;28;20386;-59
2023/05/01 12:51:49;;;;;;;19.70;3.97;;;;;;;;;;5063380;28;20142;-61
2023/05/01 12:54:21;;;;;;;13.82;3.40;;;;;;;;;;5066393;28;20757;-63
2023/05/01 12:56:48;;;;;;;13.95;3.55;;;;;;;;;;5063258;28;20626;-63
2023/05/01 12:59:25;;;;;;;10.50;2.92;;;;;;;;;;5063841;28;20044;-64
2023/05/01 13:01:57;;;;;;;11.48;3.00;;;;;;;;;;5042174;28;20132;-62
2023/05/01 13:04:25;;;;;;;18.13;3.22;;;;;;;;;;5039004;28;20108;-56
2023/05/01 13:06:54;;;;;;;13.77;3.15;;;;;;;;;;5043977;28;20049;-62
2023/05/01 13:09:30;;;;;;;9.98;3.15;;;;;;;;;;5042930;28;20041;-63
2023/05/01 13:11:57;;;;;;;11.07;2.78;;;;;;;;;;5042061;28;20087;-60
2023/05/01 13:14:24;;;;;;;14.90;3.15;;;;;;;;;;5040394;28;20041;-59
2023/05/01 13:16:51;;;;;;;22.30;3.78;;;;;;;;;;5044232;28;20033;-62
2023/05/01 13:19:28;;;;;;;12.98;3.10;;;;;;;;;;5041198;28;20033;-59
2023/05/01 13:21:57;;;;;;;15.90;3.47;;;;;;;;;;5040253;28;20068;-60
2023/05/01 13:24:26;;;;;;;20.10;2.95;;;;;;;;;;5040317;28;20044;-66
2023/05/01 13:26:59;;;;;;;12.65;2.92;;;;;;;;;;5042694;28;21159;-61
2023/05/01 13:29:27;;;;;;;21.63;3.00;;;;;;;;;;5043543;28;20041;-62
2023/05/01 13:31:53;;;;;;;13.73;2.92;;;;;;;;;;5059561;28;20068;-61
2023/05/01 13:34:26;;;;;;;16.23;3.10;;;;;;;;;;5042500;28;20503;-59
2023/05/01 13:36:54;;;;;;;14.00;3.22;;;;;;;;;;5044415;28;20045;-65
2023/05/01 13:39:21;;;;;;;12.65;3.10;;;;;;;;;;5042662;28;20032;-63
2023/05/01 13:41:48;;;;;;;12.57;3.47;;;;;;;;;;5045493;28;20052;-62
2023/05/01 13:44:16;;;;;;;8.15;2.58;;;;;;;;;;5044507;28;20088;-59
2023/05/01 13:46:43;;;;;;;9.60;2.95;;;;;;;;;;5040091;28;20036;-58
2023/05/01 13:49:10;;;;;;;15.25;2.97;;;;;;;;;;5042676;28;20040;-59
2023/05/01 13:51:41;;;;;;;11.32;3.28;;;;;;;;;;5043078;28;20139;-59
2023/05/01 13:54:08;;;;;;;14.60;3.17;;;;;;;;;;5042639;28;20039;-57
2023/05/01 13:56:36;;;;;;;15.50;2.97;;;;;;;;;;5042175;28;20547;-59
2023/05/01 13:59:04;;;;;;;8.75;3.00;;;;;;;;;;5046301;28;20086;-59
2023/05/01 14:01:30;;;;;;;9.35;2.83;;;;;;;;;;5041716;28;20570;-60
2023/05/01 14:03:59;;;;;;;9.00;2.92;;;;;;;;;;5042241;28;20040;-60
2023/05/01 14:06:27;;;;;;;16.75;3.42;;;;;;;;;;5040574;28;20028;-57
2023/05/01 14:08:59;;;;;;;13.63;3.50;;;;;;;;;;5060284;28;20566;-59
2023/05/01 14:11:25;;;;;;;11.02;2.97;;;;;;;;;;5043468;28;20049;-62
2023/05/01 14:13:53;;;;;;;12.13;3.15;;;;;;;;;;5041793;28;20125;-59
2023/05/01 14:16:20;;;;;;;15.18;3.42;;;;;;;;;;5042616;28;20049;-59
2023/05/01 14:18:47;;;;;;;11.10;2.72;;;;;;;;;;5041068;28;20445;-60
2023/05/01 14:21:17;;;;;;;10.43;2.85;;;;;;;;;;5060025;28;20656;-63
2023/05/01 14:23:44;;;;;;;9.48;2.83;;;;;;;;;;5057364;28;20047;-59
2023/05/01 14:26:11;;;;;;;11.20;2.53;;;;;;;;;;5042810;28;20087;-60
2023/05/01 14:28:45;;;;;;;9.65;2.63;;;;;;;;;;5043299;28;20261;-60
2023/05/01 14:31:32;;;;;;;12.73;2.75;;;;;;;;;;5043793;28;20072;-59
2023/05/01 14:34:00;;;;;;;8.30;2.78;;;;;;;;;;5041506;28;22070;-61
2023/05/01 14:36:29;;;;;;;14.10;2.15;;;;;;;;;;5041606;28;20484;-60
2023/05/01 14:38:57;;;;;;;9.77;2.90;;;;;;;;;;5047180;28;20041;-61
2023/05/01 14:41:24;;;;;;;15.15;2.60;;;;;;;;;;5040532;28;20194;-60
2023/05/01 14:43:54;;;;;;;15.00;2.90;;;;;;;;;;5042718;28;20048;-59
2023/05/01 14:46:27;;;;;;;11.93;2.33;;;;;;;;;;5044172;28;20033;-61
2023/05/01 14:48:53;;;;;;;7.25;2.45;;;;;;;;;;5047570;28;20194;-62